sensor_id;sensor_type;location;lat;lon;timestamp;P1;durP1;ratioP1;P2;durP2;ratioP2
9178;SDS011;71287;48.414;11.478;2023-11-21T00:00:03;5.60;;;2.30;;
9178;SDS011;71287;48.414;11.478;2023-11-21T00:02:36;6.70;;;2.40;;
9178;SDS011;71287;48.414;11.478;2023-11-21T00:05:05;7.50;;;2.50;;
9178;SDS011;71287;48.414;11.478;2023-11-21T00:07:33;6.10;;;2.27;;
9178;SDS011;71287;48.414;11.478;2023-11-21T00:10:00;4.43;;;2.23;;
9178;SDS011;71287;48.414;11.478;2023-11-21T00:12:27;3.90;;;2.00;;
9178;SDS011;71287;48.414;11.478;2023-11-21T00:14:54;2.97;;;1.73;;
9178;SDS011;71287;48.414;11.478;2023-11-21T00:17:22;4.53;;;2.10;;
9178;SDS011;71287;48.414;11.478;2023-11-21T00:19:50;3.47;;;2.00;;
9178;SDS011;71287;48.414;11.478;2023-11-21T00:22:17;4.80;;;1.73;;
9178;SDS011;71287;48.414;11.478;2023-11-21T00:24:44;3.67;;;1.30;;
9178;SDS011;71287;48.414;11.478;2023-11-21T00:27:11;3.40;;;1.53;;
9178;SDS011;71287;48.414;11.478;2023-11-21T00:29:39;3.87;;;1.50;;
9178;SDS011;71287;48.414;11.478;2023-11-21T00:32:07;2.93;;;1.20;;
9178;SDS011;71287;48.414;11.478;2023-11-21T00:34:34;6.90;;;1.20;;
9178;SDS011;71287;48.414;11.478;2023-11-21T00:37:02;4.27;;;1.43;;
9178;SDS011;71287;48.414;11.478;2023-11-21T00:39:29;3.07;;;1.30;;
9178;SDS011;71287;48.414;11.478;2023-11-21T00:41:58;4.50;;;1.30;;
9178;SDS011;71287;48.414;11.478;2023-11-21T00:44:24;5.10;;;1.20;;
9178;SDS011;71287;48.414;11.478;2023-11-21T00:46:51;2.67;;;1.03;;
9178;SDS011;71287;48.414;11.478;2023-11-21T00:49:18;1.97;;;1.23;;
9178;SDS011;71287;48.414;11.478;2023-11-21T00:51:45;2.10;;;0.90;;
9178;SDS011;71287;48.414;11.478;2023-11-21T00:54:13;2.77;;;0.90;;
9178;SDS011;71287;48.414;11.478;2023-11-21T00:56:42;3.00;;;0.70;;
9178;SDS011;71287;48.414;11.478;2023-11-21T00:59:09;3.57;;;1.10;;
9178;SDS011;71287;48.414;11.478;2023-11-21T01:01:36;2.40;;;0.90;;
9178;SDS011;71287;48.414;11.478;2023-11-21T01:04:03;3.97;;;0.70;;
9178;SDS011;71287;48.414;11.478;2023-11-21T01:06:31;2.47;;;1.00;;
9178;SDS011;71287;48.414;11.478;2023-11-21T01:08:58;2.23;;;0.80;;
9178;SDS011;71287;48.414;11.478;2023-11-21T01:11:26;2.83;;;1.00;;
9178;SDS011;71287;48.414;11.478;2023-11-21T01:13:53;3.93;;;1.00;;
9178;SDS011;71287;48.414;11.478;2023-11-21T01:16:20;4.23;;;1.00;;
9178;SDS011;71287;48.414;11.478;2023-11-21T01:18:46;2.90;;;0.73;;
9178;SDS011;71287;48.414;11.478;2023-11-21T01:21:13;1.47;;;0.63;;
9178;SDS011;71287;48.414;11.478;2023-11-21T01:23:40;1.87;;;0.43;;
9178;SDS011;71287;48.414;11.478;2023-11-21T01:26:07;3.07;;;0.60;;
9178;SDS011;71287;48.414;11.478;2023-11-21T01:28:35;1.13;;;0.40;;
9178;SDS011;71287;48.414;11.478;2023-11-21T01:31:02;1.80;;;0.47;;
9178;SDS011;71287;48.414;11.478;2023-11-21T01:33:29;2.50;;;0.60;;
9178;SDS011;71287;48.414;11.478;2023-11-21T01:35:55;1.87;;;0.53;;
9178;SDS011;71287;48.414;11.478;2023-11-21T01:38:22;3.03;;;0.50;;
9178;SDS011;71287;48.414;11.478;2023-11-21T01:40:49;0.70;;;0.40;;
9178;SDS011;71287;48.414;11.478;2023-11-21T01:43:16;1.00;;;0.33;;
9178;SDS011;71287;48.414;11.478;2023-11-21T01:45:44;1.37;;;0.50;;
9178;SDS011;71287;48.414;11.478;2023-11-21T01:48:11;1.80;;;0.40;;
9178;SDS011;71287;48.414;11.478;2023-11-21T01:50:39;1.47;;;0.53;;
9178;SDS011;71287;48.414;11.478;2023-11-21T01:53:06;0.97;;;0.27;;
9178;SDS011;71287;48.414;11.478;2023-11-21T01:55:33;2.10;;;0.40;;
9178;SDS011;71287;48.414;11.478;2023-11-21T01:58:01;2.80;;;0.60;;
9178;SDS011;71287;48.414;11.478;2023-11-21T02:00:28;2.50;;;0.50;;
9178;SDS011;71287;48.414;11.478;2023-11-21T02:02:56;4.50;;;0.40;;
9178;SDS011;71287;48.414;11.478;2023-11-21T02:05:23;2.17;;;0.50;;
9178;SDS011;71287;48.414;11.478;2023-11-21T02:07:51;1.50;;;0.50;;
9178;SDS011;71287;48.414;11.478;2023-11-21T02:10:17;1.30;;;0.30;;
9178;SDS011;71287;48.414;11.478;2023-11-21T02:12:47;1.80;;;0.53;;
9178;SDS011;71287;48.414;11.478;2023-11-21T02:15:15;1.83;;;0.40;;
9178;SDS011;71287;48.414;11.478;2023-11-21T02:17:45;2.47;;;0.40;;
9178;SDS011;71287;48.414;11.478;2023-11-21T02:20:17;0.73;;;0.30;;
9178;SDS011;71287;48.414;11.478;2023-11-21T02:22:48;1.33;;;0.33;;
9178;SDS011;71287;48.414;11.478;2023-11-21T02:25:18;0.83;;;0.23;;
9178;SDS011;71287;48.414;11.478;2023-11-21T02:27:44;1.73;;;0.47;;
9178;SDS011;71287;48.414;11.478;2023-11-21T02:30:13;2.13;;;0.23;;
9178;SDS011;71287;48.414;11.478;2023-11-21T02:32:41;0.97;;;0.40;;
9178;SDS011;71287;48.414;11.478;2023-11-21T02:35:09;1.80;;;0.30;;
9178;SDS011;71287;48.414;11.478;2023-11-21T02:37:37;1.70;;;0.30;;
9178;SDS011;71287;48.414;11.478;2023-11-21T02:40:06;1.30;;;0.30;;
9178;SDS011;71287;48.414;11.478;2023-11-21T02:42:37;1.37;;;0.43;;
9178;SDS011;71287;48.414;11.478;2023-11-21T02:45:05;1.43;;;0.37;;
9178;SDS011;71287;48.414;11.478;2023-11-21T02:47:32;0.83;;;0.30;;
9178;SDS011;71287;48.414;11.478;2023-11-21T02:49:59;0.43;;;0.20;;
9178;SDS011;71287;48.414;11.478;2023-11-21T02:52:26;1.07;;;0.43;;
9178;SDS011;71287;48.414;11.478;2023-11-21T02:54:53;1.27;;;0.27;;
9178;SDS011;71287;48.414;11.478;2023-11-21T02:57:21;1.47;;;0.50;;
9178;SDS011;71287;48.414;11.478;2023-11-21T02:59:48;0.40;;;0.20;;
9178;SDS011;71287;48.414;11.478;2023-11-21T03:02:15;0.53;;;0.30;;
9178;SDS011;71287;48.414;11.478;2023-11-21T03:04:42;1.50;;;0.47;;
9178;SDS011;71287;48.414;11.478;2023-11-21T03:07:09;3.30;;;0.33;;
9178;SDS011;71287;48.414;11.478;2023-11-21T03:09:36;1.57;;;0.30;;
9178;SDS011;71287;48.414;11.478;2023-11-21T03:12:03;0.47;;;0.30;;
9178;SDS011;71287;48.414;11.478;2023-11-21T03:14:32;0.70;;;0.20;;
9178;SDS011;71287;48.414;11.478;2023-11-21T03:16:58;1.37;;;0.50;;
9178;SDS011;71287;48.414;11.478;2023-11-21T03:19:25;1.10;;;0.33;;
9178;SDS011;71287;48.414;11.478;2023-11-21T03:21:52;0.93;;;0.30;;
9178;SDS011;71287;48.414;11.478;2023-11-21T03:24:19;1.53;;;0.40;;
9178;SDS011;71287;48.414;11.478;2023-11-21T03:26:47;1.87;;;0.40;;
9178;SDS011;71287;48.414;11.478;2023-11-21T03:29:14;2.57;;;0.40;;
9178;SDS011;71287;48.414;11.478;2023-11-21T03:31:42;0.87;;;0.30;;
9178;SDS011;71287;48.414;11.478;2023-11-21T03:34:10;1.60;;;0.30;;
9178;SDS011;71287;48.414;11.478;2023-11-21T03:36:40;2.13;;;0.50;;
9178;SDS011;71287;48.414;11.478;2023-11-21T03:39:07;2.10;;;0.63;;
9178;SDS011;71287;48.414;11.478;2023-11-21T03:41:34;0.83;;;0.37;;
9178;SDS011;71287;48.414;11.478;2023-11-21T03:44:01;0.73;;;0.30;;
9178;SDS011;71287;48.414;11.478;2023-11-21T03:46:28;1.47;;;0.40;;
9178;SDS011;71287;48.414;11.478;2023-11-21T03:48:56;1.50;;;0.50;;
9178;SDS011;71287;48.414;11.478;2023-11-21T03:51:23;0.47;;;0.30;;
9178;SDS011;71287;48.414;11.478;2023-11-21T03:53:49;2.13;;;0.80;;
9178;SDS011;71287;48.414;11.478;2023-11-21T03:56:16;3.27;;;1.10;;
9178;SDS011;71287;48.414;11.478;2023-11-21T03:58:43;3.70;;;1.37;;
9178;SDS011;71287;48.414;11.478;2023-11-21T04:01:10;1.10;;;1.00;;
9178;SDS011;71287;48.414;11.478;2023-11-21T04:03:36;1.53;;;0.80;;
9178;SDS011;71287;48.414;11.478;2023-11-21T04:06:07;2.37;;;0.60;;
9178;SDS011;71287;48.414;11.478;2023-11-21T04:08:35;2.13;;;0.90;;
9178;SDS011;71287;48.414;11.478;2023-11-21T04:11:01;1.73;;;0.30;;
9178;SDS011;71287;48.414;11.478;2023-11-21T04:13:29;1.47;;;0.40;;
9178;SDS011;71287;48.414;11.478;2023-11-21T04:15:56;0.60;;;0.40;;
9178;SDS011;71287;48.414;11.478;2023-11-21T04:18:23;1.97;;;0.50;;
9178;SDS011;71287;48.414;11.478;2023-11-21T04:20:49;2.97;;;0.70;;
9178;SDS011;71287;48.414;11.478;2023-11-21T04:23:17;2.27;;;0.80;;
9178;SDS011;71287;48.414;11.478;2023-11-21T04:25:44;2.10;;;0.90;;
9178;SDS011;71287;48.414;11.478;2023-11-21T04:28:11;3.43;;;1.03;;
9178;SDS011;71287;48.414;11.478;2023-11-21T04:30:38;0.50;;;0.40;;
9178;SDS011;71287;48.414;11.478;2023-11-21T04:33:06;2.93;;;0.90;;
9178;SDS011;71287;48.414;11.478;2023-11-21T04:35:33;2.30;;;0.60;;
9178;SDS011;71287;48.414;11.478;2023-11-21T04:38:00;2.13;;;0.57;;
9178;SDS011;71287;48.414;11.478;2023-11-21T04:40:28;1.30;;;0.63;;
9178;SDS011;71287;48.414;11.478;2023-11-21T04:42:55;3.00;;;0.50;;
9178;SDS011;71287;48.414;11.478;2023-11-21T04:45:22;1.33;;;0.60;;
9178;SDS011;71287;48.414;11.478;2023-11-21T04:47:49;0.87;;;0.30;;
9178;SDS011;71287;48.414;11.478;2023-11-21T04:50:16;1.20;;;0.33;;
9178;SDS011;71287;48.414;11.478;2023-11-21T04:52:42;3.03;;;0.40;;
9178;SDS011;71287;48.414;11.478;2023-11-21T04:55:09;1.33;;;0.43;;
9178;SDS011;71287;48.414;11.478;2023-11-21T04:57:37;1.27;;;0.50;;
9178;SDS011;71287;48.414;11.478;2023-11-21T05:00:06;2.33;;;0.50;;
9178;SDS011;71287;48.414;11.478;2023-11-21T05:02:34;3.70;;;0.50;;
9178;SDS011;71287;48.414;11.478;2023-11-21T05:05:03;2.23;;;0.50;;
9178;SDS011;71287;48.414;11.478;2023-11-21T05:07:30;1.07;;;0.40;;
9178;SDS011;71287;48.414;11.478;2023-11-21T05:10:00;2.00;;;0.53;;
9178;SDS011;71287;48.414;11.478;2023-11-21T05:12:30;1.73;;;0.40;;
9178;SDS011;71287;48.414;11.478;2023-11-21T05:15:01;1.13;;;0.47;;
9178;SDS011;71287;48.414;11.478;2023-11-21T05:17:32;2.07;;;0.30;;
9178;SDS011;71287;48.414;11.478;2023-11-21T05:19:59;1.00;;;0.40;;
9178;SDS011;71287;48.414;11.478;2023-11-21T05:22:26;0.50;;;0.30;;
9178;SDS011;71287;48.414;11.478;2023-11-21T05:24:53;3.67;;;0.47;;
9178;SDS011;71287;48.414;11.478;2023-11-21T05:27:20;1.00;;;0.53;;
9178;SDS011;71287;48.414;11.478;2023-11-21T05:29:47;1.97;;;0.50;;
9178;SDS011;71287;48.414;11.478;2023-11-21T05:32:15;1.00;;;0.40;;
9178;SDS011;71287;48.414;11.478;2023-11-21T05:34:42;1.77;;;0.30;;
9178;SDS011;71287;48.414;11.478;2023-11-21T05:37:09;0.93;;;0.30;;
9178;SDS011;71287;48.414;11.478;2023-11-21T05:39:36;2.23;;;0.30;;
9178;SDS011;71287;48.414;11.478;2023-11-21T05:42:02;1.37;;;0.30;;
9178;SDS011;71287;48.414;11.478;2023-11-21T05:44:30;2.50;;;0.50;;
9178;SDS011;71287;48.414;11.478;2023-11-21T05:46:56;2.30;;;0.50;;
9178;SDS011;71287;48.414;11.478;2023-11-21T05:49:25;1.03;;;0.40;;
9178;SDS011;71287;48.414;11.478;2023-11-21T05:51:53;2.10;;;0.60;;
9178;SDS011;71287;48.414;11.478;2023-11-21T05:54:20;3.03;;;0.70;;
9178;SDS011;71287;48.414;11.478;2023-11-21T05:56:47;1.13;;;0.47;;
9178;SDS011;71287;48.414;11.478;2023-11-21T05:59:14;1.27;;;0.50;;
9178;SDS011;71287;48.414;11.478;2023-11-21T06:01:40;2.00;;;0.70;;
9178;SDS011;71287;48.414;11.478;2023-11-21T06:04:07;1.10;;;0.50;;
9178;SDS011;71287;48.414;11.478;2023-11-21T06:06:35;1.67;;;0.70;;
9178;SDS011;71287;48.414;11.478;2023-11-21T06:09:02;1.40;;;0.60;;
9178;SDS011;71287;48.414;11.478;2023-11-21T06:11:30;1.17;;;0.63;;
9178;SDS011;71287;48.414;11.478;2023-11-21T06:13:57;2.63;;;0.80;;
9178;SDS011;71287;48.414;11.478;2023-11-21T06:16:24;1.93;;;0.57;;
9178;SDS011;71287;48.414;11.478;2023-11-21T06:18:51;1.97;;;0.77;;
9178;SDS011;71287;48.414;11.478;2023-11-21T06:21:17;3.13;;;1.10;;
9178;SDS011;71287;48.414;11.478;2023-11-21T06:23:45;1.27;;;0.80;;
9178;SDS011;71287;48.414;11.478;2023-11-21T06:26:12;4.40;;;0.90;;
9178;SDS011;71287;48.414;11.478;2023-11-21T06:28:39;2.40;;;1.00;;
9178;SDS011;71287;48.414;11.478;2023-11-21T06:31:06;4.10;;;1.43;;
9178;SDS011;71287;48.414;11.478;2023-11-21T06:33:33;3.00;;;1.70;;
9178;SDS011;71287;48.414;11.478;2023-11-21T06:35:59;3.67;;;1.53;;
9178;SDS011;71287;48.414;11.478;2023-11-21T06:38:27;2.97;;;1.43;;
9178;SDS011;71287;48.414;11.478;2023-11-21T06:40:56;3.37;;;1.67;;
9178;SDS011;71287;48.414;11.478;2023-11-21T06:43:23;2.57;;;0.60;;
9178;SDS011;71287;48.414;11.478;2023-11-21T06:45:50;2.40;;;0.57;;
9178;SDS011;71287;48.414;11.478;2023-11-21T06:48:16;2.27;;;0.60;;
9178;SDS011;71287;48.414;11.478;2023-11-21T06:50:43;1.37;;;0.60;;
9178;SDS011;71287;48.414;11.478;2023-11-21T06:53:11;1.70;;;0.40;;
9178;SDS011;71287;48.414;11.478;2023-11-21T06:55:38;1.93;;;0.40;;
9178;SDS011;71287;48.414;11.478;2023-11-21T06:58:06;1.53;;;0.67;;
9178;SDS011;71287;48.414;11.478;2023-11-21T07:00:33;0.43;;;0.43;;
9178;SDS011;71287;48.414;11.478;2023-11-21T07:03:00;2.13;;;1.23;;
9178;SDS011;71287;48.414;11.478;2023-11-21T07:05:27;1.57;;;0.83;;
9178;SDS011;71287;48.414;11.478;2023-11-21T07:07:53;0.80;;;0.80;;
9178;SDS011;71287;48.414;11.478;2023-11-21T07:10:20;1.90;;;1.00;;
9178;SDS011;71287;48.414;11.478;2023-11-21T07:12:47;1.80;;;0.90;;
9178;SDS011;71287;48.414;11.478;2023-11-21T07:15:15;1.67;;;1.10;;
9178;SDS011;71287;48.414;11.478;2023-11-21T07:17:44;3.20;;;1.50;;
9178;SDS011;71287;48.414;11.478;2023-11-21T07:20:12;5.40;;;1.97;;
9178;SDS011;71287;48.414;11.478;2023-11-21T07:22:38;2.03;;;1.50;;
9178;SDS011;71287;48.414;11.478;2023-11-21T07:25:05;2.77;;;1.60;;
9178;SDS011;71287;48.414;11.478;2023-11-21T07:27:34;2.20;;;1.20;;
9178;SDS011;71287;48.414;11.478;2023-11-21T07:30:02;3.30;;;1.07;;
9178;SDS011;71287;48.414;11.478;2023-11-21T07:32:32;0.87;;;0.73;;
9178;SDS011;71287;48.414;11.478;2023-11-21T07:34:59;0.93;;;0.60;;
9178;SDS011;71287;48.414;11.478;2023-11-21T07:37:26;0.93;;;0.80;;
9178;SDS011;71287;48.414;11.478;2023-11-21T07:39:54;1.73;;;0.53;;
9178;SDS011;71287;48.414;11.478;2023-11-21T07:42:21;1.40;;;0.50;;
9178;SDS011;71287;48.414;11.478;2023-11-21T07:44:48;0.87;;;0.60;;
9178;SDS011;71287;48.414;11.478;2023-11-21T07:47:15;1.40;;;0.60;;
9178;SDS011;71287;48.414;11.478;2023-11-21T07:49:43;1.03;;;0.60;;
9178;SDS011;71287;48.414;11.478;2023-11-21T07:52:11;2.10;;;0.60;;
9178;SDS011;71287;48.414;11.478;2023-11-21T07:54:41;1.77;;;0.70;;
9178;SDS011;71287;48.414;11.478;2023-11-21T07:57:08;0.60;;;0.50;;
9178;SDS011;71287;48.414;11.478;2023-11-21T07:59:38;0.80;;;0.80;;
9178;SDS011;71287;48.414;11.478;2023-11-21T08:02:05;1.73;;;0.90;;
9178;SDS011;71287;48.414;11.478;2023-11-21T08:04:32;1.83;;;1.10;;
9178;SDS011;71287;48.414;11.478;2023-11-21T08:07:00;2.90;;;1.40;;
9178;SDS011;71287;48.414;11.478;2023-11-21T08:09:28;1.60;;;1.10;;
9178;SDS011;71287;48.414;11.478;2023-11-21T08:11:55;2.17;;;1.33;;
9178;SDS011;71287;48.414;11.478;2023-11-21T08:14:22;2.50;;;1.83;;
9178;SDS011;71287;48.414;11.478;2023-11-21T08:16:50;1.60;;;1.23;;
9178;SDS011;71287;48.414;11.478;2023-11-21T08:19:17;1.80;;;0.93;;
9178;SDS011;71287;48.414;11.478;2023-11-21T08:21:44;1.53;;;1.17;;
9178;SDS011;71287;48.414;11.478;2023-11-21T08:24:12;3.80;;;0.90;;
9178;SDS011;71287;48.414;11.478;2023-11-21T08:26:39;1.60;;;0.50;;
9178;SDS011;71287;48.414;11.478;2023-11-21T08:29:05;0.43;;;0.30;;
9178;SDS011;71287;48.414;11.478;2023-11-21T08:31:33;0.63;;;0.30;;
9178;SDS011;71287;48.414;11.478;2023-11-21T08:34:00;1.53;;;0.33;;
9178;SDS011;71287;48.414;11.478;2023-11-21T08:36:28;0.30;;;0.20;;
9178;SDS011;71287;48.414;11.478;2023-11-21T08:38:54;0.73;;;0.20;;
9178;SDS011;71287;48.414;11.478;2023-11-21T08:41:22;0.90;;;0.37;;
9178;SDS011;71287;48.414;11.478;2023-11-21T08:43:49;0.73;;;0.30;;
9178;SDS011;71287;48.414;11.478;2023-11-21T08:46:16;0.43;;;0.23;;
9178;SDS011;71287;48.414;11.478;2023-11-21T08:48:43;1.77;;;0.30;;
9178;SDS011;71287;48.414;11.478;2023-11-21T08:51:10;1.17;;;0.43;;
9178;SDS011;71287;48.414;11.478;2023-11-21T08:53:39;0.80;;;0.30;;
9178;SDS011;71287;48.414;11.478;2023-11-21T08:56:06;1.37;;;0.20;;
9178;SDS011;71287;48.414;11.478;2023-11-21T08:58:35;0.90;;;0.30;;
9178;SDS011;71287;48.414;11.478;2023-11-21T09:01:03;1.60;;;0.60;;
9178;SDS011;71287;48.414;11.478;2023-11-21T09:03:31;0.77;;;0.40;;
9178;SDS011;71287;48.414;11.478;2023-11-21T09:05:59;0.90;;;0.33;;
9178;SDS011;71287;48.414;11.478;2023-11-21T09:08:26;0.30;;;0.27;;
9178;SDS011;71287;48.414;11.478;2023-11-21T09:10:54;0.57;;;0.20;;
9178;SDS011;71287;48.414;11.478;2023-11-21T09:13:21;0.63;;;0.27;;
9178;SDS011;71287;48.414;11.478;2023-11-21T09:15:51;0.83;;;0.33;;
9178;SDS011;71287;48.414;11.478;2023-11-21T09:18:18;0.37;;;0.30;;
9178;SDS011;71287;48.414;11.478;2023-11-21T09:20:45;0.30;;;0.30;;
9178;SDS011;71287;48.414;11.478;2023-11-21T09:23:12;0.60;;;0.20;;
9178;SDS011;71287;48.414;11.478;2023-11-21T09:25:38;0.63;;;0.30;;
9178;SDS011;71287;48.414;11.478;2023-11-21T09:28:05;0.73;;;0.40;;
9178;SDS011;71287;48.414;11.478;2023-11-21T09:30:33;1.20;;;0.50;;
9178;SDS011;71287;48.414;11.478;2023-11-21T09:33:01;0.60;;;0.30;;
9178;SDS011;71287;48.414;11.478;2023-11-21T09:35:30;1.80;;;0.50;;
9178;SDS011;71287;48.414;11.478;2023-11-21T09:37:57;1.17;;;0.30;;
9178;SDS011;71287;48.414;11.478;2023-11-21T09:40:23;1.40;;;0.30;;
9178;SDS011;71287;48.414;11.478;2023-11-21T09:42:53;0.30;;;0.30;;
9178;SDS011;71287;48.414;11.478;2023-11-21T09:45:24;1.17;;;0.50;;
9178;SDS011;71287;48.414;11.478;2023-11-21T09:47:52;2.40;;;0.70;;
9178;SDS011;71287;48.414;11.478;2023-11-21T09:50:22;0.67;;;0.47;;
9178;SDS011;71287;48.414;11.478;2023-11-21T09:52:54;0.40;;;0.30;;
9178;SDS011;71287;48.414;11.478;2023-11-21T09:55:26;0.50;;;0.37;;
9178;SDS011;71287;48.414;11.478;2023-11-21T09:57:55;0.63;;;0.40;;
9178;SDS011;71287;48.414;11.478;2023-11-21T10:00:22;0.93;;;0.40;;
9178;SDS011;71287;48.414;11.478;2023-11-21T10:02:50;0.83;;;0.40;;
9178;SDS011;71287;48.414;11.478;2023-11-21T10:05:18;0.80;;;0.50;;
9178;SDS011;71287;48.414;11.478;2023-11-21T10:07:46;0.50;;;0.50;;
9178;SDS011;71287;48.414;11.478;2023-11-21T10:10:14;0.63;;;0.40;;
9178;SDS011;71287;48.414;11.478;2023-11-21T10:12:45;1.20;;;0.40;;
9178;SDS011;71287;48.414;11.478;2023-11-21T10:15:16;0.23;;;0.23;;
9178;SDS011;71287;48.414;11.478;2023-11-21T10:17:43;0.40;;;0.30;;
9178;SDS011;71287;48.414;11.478;2023-11-21T10:20:11;1.60;;;0.30;;
9178;SDS011;71287;48.414;11.478;2023-11-21T10:22:38;2.00;;;0.40;;
9178;SDS011;71287;48.414;11.478;2023-11-21T10:25:08;0.20;;;0.20;;
9178;SDS011;71287;48.414;11.478;2023-11-21T10:27:36;0.20;;;0.20;;
9178;SDS011;71287;48.414;11.478;2023-11-21T10:30:04;0.73;;;0.23;;
9178;SDS011;71287;48.414;11.478;2023-11-21T10:32:32;0.60;;;0.40;;
9178;SDS011;71287;48.414;11.478;2023-11-21T10:34:59;1.60;;;0.30;;
9178;SDS011;71287;48.414;11.478;2023-11-21T10:37:31;1.63;;;0.40;;
9178;SDS011;71287;48.414;11.478;2023-11-21T10:39:58;1.43;;;0.43;;
9178;SDS011;71287;48.414;11.478;2023-11-21T10:42:26;0.60;;;0.40;;
9178;SDS011;71287;48.414;11.478;2023-11-21T10:44:53;0.60;;;0.30;;
9178;SDS011;71287;48.414;11.478;2023-11-21T10:47:21;0.53;;;0.20;;
9178;SDS011;71287;48.414;11.478;2023-11-21T10:49:48;0.60;;;0.27;;
9178;SDS011;71287;48.414;11.478;2023-11-21T10:52:15;1.57;;;0.30;;
9178;SDS011;71287;48.414;11.478;2023-11-21T10:54:45;0.73;;;0.50;;
9178;SDS011;71287;48.414;11.478;2023-11-21T10:57:13;0.47;;;0.20;;
9178;SDS011;71287;48.414;11.478;2023-11-21T10:59:46;1.10;;;0.13;;
9178;SDS011;71287;48.414;11.478;2023-11-21T11:02:16;0.40;;;0.30;;
9178;SDS011;71287;48.414;11.478;2023-11-21T11:04:50;1.70;;;0.27;;
9178;SDS011;71287;48.414;11.478;2023-11-21T11:07:20;2.07;;;0.30;;
9178;SDS011;71287;48.414;11.478;2023-11-21T11:09:51;0.30;;;0.30;;
9178;SDS011;71287;48.414;11.478;2023-11-21T11:12:18;0.53;;;0.30;;
9178;SDS011;71287;48.414;11.478;2023-11-21T11:14:47;0.33;;;0.23;;
9178;SDS011;71287;48.414;11.478;2023-11-21T11:17:14;0.40;;;0.20;;
9178;SDS011;71287;48.414;11.478;2023-11-21T11:19:41;0.87;;;0.30;;
9178;SDS011;71287;48.414;11.478;2023-11-21T11:22:15;0.20;;;0.20;;
9178;SDS011;71287;48.414;11.478;2023-11-21T11:24:58;1.73;;;0.30;;
9178;SDS011;71287;48.414;11.478;2023-11-21T11:27:40;0.50;;;0.20;;
9178;SDS011;71287;48.414;11.478;2023-11-21T11:30:20;1.03;;;0.30;;
9178;SDS011;71287;48.414;11.478;2023-11-21T11:33:04;0.30;;;0.30;;
9178;SDS011;71287;48.414;11.478;2023-11-21T11:35:40;0.40;;;0.20;;
9178;SDS011;71287;48.414;11.478;2023-11-21T11:38:19;0.40;;;0.40;;
9178;SDS011;71287;48.414;11.478;2023-11-21T11:40:47;0.63;;;0.30;;
9178;SDS011;71287;48.414;11.478;2023-11-21T11:43:14;2.00;;;0.30;;
9178;SDS011;71287;48.414;11.478;2023-11-21T11:45:53;0.47;;;0.33;;
9178;SDS011;71287;48.414;11.478;2023-11-21T11:48:22;1.03;;;0.40;;
9178;SDS011;71287;48.414;11.478;2023-11-21T11:53:37;0.20;;;0.20;;
9178;SDS011;71287;48.414;11.478;2023-11-21T11:56:22;1.80;;;0.40;;
9178;SDS011;71287;48.414;11.478;2023-11-21T11:58:51;0.60;;;0.30;;
9178;SDS011;71287;48.414;11.478;2023-11-21T12:01:20;0.23;;;0.20;;
9178;SDS011;71287;48.414;11.478;2023-11-21T12:07:10;0.37;;;0.10;;
9178;SDS011;71287;48.414;11.478;2023-11-21T12:09:40;0.50;;;0.20;;
9178;SDS011;71287;48.414;11.478;2023-11-21T12:12:08;0.30;;;0.10;;
9178;SDS011;71287;48.414;11.478;2023-11-21T12:14:34;0.20;;;0.20;;
9178;SDS011;71287;48.414;11.478;2023-11-21T12:17:04;0.50;;;0.20;;
9178;SDS011;71287;48.414;11.478;2023-11-21T12:19:31;0.63;;;0.30;;
9178;SDS011;71287;48.414;11.478;2023-11-21T12:21:58;0.10;;;0.10;;
9178;SDS011;71287;48.414;11.478;2023-11-21T12:24:25;1.90;;;0.17;;
9178;SDS011;71287;48.414;11.478;2023-11-21T12:26:54;0.23;;;0.20;;
9178;SDS011;71287;48.414;11.478;2023-11-21T12:29:20;0.70;;;0.17;;
9178;SDS011;71287;48.414;11.478;2023-11-21T12:31:48;0.70;;;0.20;;
9178;SDS011;71287;48.414;11.478;2023-11-21T12:34:17;0.67;;;0.27;;
9178;SDS011;71287;48.414;11.478;2023-11-21T12:36:44;1.40;;;0.20;;
9178;SDS011;71287;48.414;11.478;2023-11-21T12:39:11;0.20;;;0.20;;
9178;SDS011;71287;48.414;11.478;2023-11-21T12:41:39;0.93;;;0.30;;
9178;SDS011;71287;48.414;11.478;2023-11-21T12:44:09;0.43;;;0.30;;
9178;SDS011;71287;48.414;11.478;2023-11-21T12:46:40;1.03;;;0.30;;
9178;SDS011;71287;48.414;11.478;2023-11-21T12:49:10;0.63;;;0.30;;
9178;SDS011;71287;48.414;11.478;2023-11-21T12:51:43;2.00;;;0.40;;
9178;SDS011;71287;48.414;11.478;2023-11-21T12:54:11;0.30;;;0.30;;
9178;SDS011;71287;48.414;11.478;2023-11-21T12:56:39;1.23;;;0.60;;
9178;SDS011;71287;48.414;11.478;2023-11-21T12:59:05;0.50;;;0.40;;
9178;SDS011;71287;48.414;11.478;2023-11-21T13:01:34;1.43;;;0.67;;
9178;SDS011;71287;48.414;11.478;2023-11-21T13:04:02;1.03;;;0.50;;
9178;SDS011;71287;48.414;11.478;2023-11-21T13:06:35;0.73;;;0.40;;
9178;SDS011;71287;48.414;11.478;2023-11-21T13:09:07;2.53;;;0.60;;
9178;SDS011;71287;48.414;11.478;2023-11-21T13:11:36;0.70;;;0.50;;
9178;SDS011;71287;48.414;11.478;2023-11-21T13:14:05;0.77;;;0.40;;
9178;SDS011;71287;48.414;11.478;2023-11-21T13:16:32;0.83;;;0.40;;
9178;SDS011;71287;48.414;11.478;2023-11-21T13:18:59;0.50;;;0.37;;
9178;SDS011;71287;48.414;11.478;2023-11-21T13:21:26;0.20;;;0.20;;
9178;SDS011;71287;48.414;11.478;2023-11-21T13:23:52;1.63;;;0.40;;
9178;SDS011;71287;48.414;11.478;2023-11-21T13:26:21;0.63;;;0.50;;
9178;SDS011;71287;48.414;11.478;2023-11-21T13:28:49;0.53;;;0.40;;
9178;SDS011;71287;48.414;11.478;2023-11-21T13:31:15;1.40;;;0.60;;
9178;SDS011;71287;48.414;11.478;2023-11-21T13:33:50;1.60;;;0.53;;
9178;SDS011;71287;48.414;11.478;2023-11-21T13:36:20;0.40;;;0.30;;
9178;SDS011;71287;48.414;11.478;2023-11-21T13:38:48;0.70;;;0.40;;
9178;SDS011;71287;48.414;11.478;2023-11-21T13:41:15;0.33;;;0.33;;
9178;SDS011;71287;48.414;11.478;2023-11-21T13:43:44;2.50;;;0.60;;
9178;SDS011;71287;48.414;11.478;2023-11-21T13:46:24;1.10;;;0.30;;
9178;SDS011;71287;48.414;11.478;2023-11-21T13:48:50;0.97;;;0.40;;
9178;SDS011;71287;48.414;11.478;2023-11-21T13:51:21;0.30;;;0.20;;
9178;SDS011;71287;48.414;11.478;2023-11-21T13:53:56;0.80;;;0.40;;
9178;SDS011;71287;48.414;11.478;2023-11-21T13:56:24;0.83;;;0.50;;
9178;SDS011;71287;48.414;11.478;2023-11-21T13:58:54;0.50;;;0.40;;
9178;SDS011;71287;48.414;11.478;2023-11-21T14:01:22;1.50;;;0.40;;
9178;SDS011;71287;48.414;11.478;2023-11-21T14:04:10;0.47;;;0.40;;
9178;SDS011;71287;48.414;11.478;2023-11-21T14:06:45;0.40;;;0.40;;
9178;SDS011;71287;48.414;11.478;2023-11-21T14:09:14;0.27;;;0.27;;
9178;SDS011;71287;48.414;11.478;2023-11-21T14:11:47;0.50;;;0.30;;
9178;SDS011;71287;48.414;11.478;2023-11-21T14:14:17;1.60;;;0.40;;
9178;SDS011;71287;48.414;11.478;2023-11-21T14:16:45;0.70;;;0.40;;
9178;SDS011;71287;48.414;11.478;2023-11-21T14:19:11;0.60;;;0.50;;
9178;SDS011;71287;48.414;11.478;2023-11-21T14:21:41;1.27;;;0.60;;
9178;SDS011;71287;48.414;11.478;2023-11-21T14:24:09;0.90;;;0.53;;
9178;SDS011;71287;48.414;11.478;2023-11-21T14:26:37;0.33;;;0.30;;
9178;SDS011;71287;48.414;11.478;2023-11-21T14:29:05;0.63;;;0.20;;
9178;SDS011;71287;48.414;11.478;2023-11-21T14:31:34;0.47;;;0.30;;
9178;SDS011;71287;48.414;11.478;2023-11-21T14:34:02;0.30;;;0.30;;
9178;SDS011;71287;48.414;11.478;2023-11-21T14:36:31;0.30;;;0.30;;
9178;SDS011;71287;48.414;11.478;2023-11-21T14:38:58;0.40;;;0.27;;
9178;SDS011;71287;48.414;11.478;2023-11-21T14:41:24;0.33;;;0.20;;
9178;SDS011;71287;48.414;11.478;2023-11-21T14:43:53;0.20;;;0.10;;
9178;SDS011;71287;48.414;11.478;2023-11-21T14:46:22;0.23;;;0.10;;
9178;SDS011;71287;48.414;11.478;2023-11-21T14:48:50;0.20;;;0.20;;
9178;SDS011;71287;48.414;11.478;2023-11-21T14:51:25;0.20;;;0.20;;
9178;SDS011;71287;48.414;11.478;2023-11-21T14:53:52;0.20;;;0.20;;
9178;SDS011;71287;48.414;11.478;2023-11-21T14:56:19;0.30;;;0.27;;
9178;SDS011;71287;48.414;11.478;2023-11-21T14:58:51;0.30;;;0.30;;